sensor_id;sensor_type;location;lat;lon;timestamp;P1;durP1;ratioP1;P2;durP2;ratioP2
65665;SDS011;52365;47.464;18.976;2023-04-25T00:00:12;2.67;;;1.02;;
65665;SDS011;52365;47.464;18.976;2023-04-25T00:00:33;2.12;;;1.20;;
65665;SDS011;52365;47.464;18.976;2023-04-25T00:00:54;2.35;;;1.02;;
65665;SDS011;52365;47.464;18.976;2023-04-25T00:01:15;1.67;;;1.15;;
65665;SDS011;52365;47.464;18.976;2023-04-25T00:01:36;2.50;;;1.20;;
65665;SDS011;52365;47.464;18.976;2023-04-25T00:01:53;2.25;;;1.10;;
65665;SDS011;52365;47.464;18.976;2023-04-25T00:02:14;1.50;;;1.10;;
65665;SDS011;52365;47.464;18.976;2023-04-25T00:02:30;1.83;;;1.17;;
65665;SDS011;52365;47.464;18.976;2023-04-25T00:02:53;2.20;;;1.23;;
65665;SDS011;52365;47.464;18.976;2023-04-25T00:03:09;1.95;;;1.10;;
65665;SDS011;52365;47.464;18.976;2023-04-25T00:03:33;1.20;;;1.00;;
65665;SDS011;52365;47.464;18.976;2023-04-25T00:03:54;1.80;;;1.20;;
65665;SDS011;52365;47.464;18.976;2023-04-25T00:04:15;1.60;;;1.20;;
65665;SDS011;52365;47.464;18.976;2023-04-25T00:04:36;1.62;;;1.20;;
65665;SDS011;52365;47.464;18.976;2023-04-25T00:04:58;1.50;;;1.20;;
65665;SDS011;52365;47.464;18.976;2023-04-25T00:05:19;1.60;;;1.10;;
65665;SDS011;52365;47.464;18.976;2023-04-25T00:05:41;2.62;;;1.20;;
65665;SDS011;52365;47.464;18.976;2023-04-25T00:06:02;2.00;;;1.08;;
65665;SDS011;52365;47.464;18.976;2023-04-25T00:06:23;2.10;;;1.10;;
65665;SDS011;52365;47.464;18.976;2023-04-25T00:06:47;2.37;;;1.10;;
65665;SDS011;52365;47.464;18.976;2023-04-25T00:07:08;1.77;;;1.20;;
65665;SDS011;52365;47.464;18.976;2023-04-25T00:07:29;1.90;;;1.30;;
65665;SDS011;52365;47.464;18.976;2023-04-25T00:07:50;2.40;;;1.30;;
65665;SDS011;52365;47.464;18.976;2023-04-25T00:08:11;2.37;;;1.30;;
65665;SDS011;52365;47.464;18.976;2023-04-25T00:08:32;2.35;;;1.27;;
65665;SDS011;52365;47.464;18.976;2023-04-25T00:08:53;1.80;;;1.20;;
65665;SDS011;52365;47.464;18.976;2023-04-25T00:09:16;2.30;;;1.35;;
65665;SDS011;52365;47.464;18.976;2023-04-25T00:09:37;2.20;;;1.30;;
65665;SDS011;52365;47.464;18.976;2023-04-25T00:09:58;2.50;;;1.40;;
65665;SDS011;52365;47.464;18.976;2023-04-25T00:10:19;2.22;;;1.33;;
65665;SDS011;52365;47.464;18.976;2023-04-25T00:10:41;2.17;;;1.37;;
65665;SDS011;52365;47.464;18.976;2023-04-25T00:11:02;1.90;;;1.30;;
65665;SDS011;52365;47.464;18.976;2023-04-25T00:11:18;2.25;;;1.20;;
65665;SDS011;52365;47.464;18.976;2023-04-25T00:11:39;3.72;;;1.40;;
65665;SDS011;52365;47.464;18.976;2023-04-25T00:12:01;2.70;;;1.40;;
65665;SDS011;52365;47.464;18.976;2023-04-25T00:12:22;2.20;;;1.30;;
65665;SDS011;52365;47.464;18.976;2023-04-25T00:12:43;2.78;;;1.40;;
65665;SDS011;52365;47.464;18.976;2023-04-25T00:13:04;2.50;;;1.50;;
65665;SDS011;52365;47.464;18.976;2023-04-25T00:13:25;2.20;;;1.40;;
65665;SDS011;52365;47.464;18.976;2023-04-25T00:13:47;2.20;;;1.50;;
65665;SDS011;52365;47.464;18.976;2023-04-25T00:14:10;2.00;;;1.50;;
65665;SDS011;52365;47.464;18.976;2023-04-25T00:14:31;2.60;;;1.40;;
65665;SDS011;52365;47.464;18.976;2023-04-25T00:14:54;1.80;;;1.40;;
65665;SDS011;52365;47.464;18.976;2023-04-25T00:15:17;2.33;;;1.52;;
65665;SDS011;52365;47.464;18.976;2023-04-25T00:15:38;2.15;;;1.40;;
65665;SDS011;52365;47.464;18.976;2023-04-25T00:15:59;2.90;;;1.33;;
65665;SDS011;52365;47.464;18.976;2023-04-25T00:16:20;3.03;;;1.40;;
65665;SDS011;52365;47.464;18.976;2023-04-25T00:16:41;2.50;;;1.40;;
65665;SDS011;52365;47.464;18.976;2023-04-25T00:17:04;2.20;;;1.33;;
65665;SDS011;52365;47.464;18.976;2023-04-25T00:17:26;1.87;;;1.35;;
65665;SDS011;52365;47.464;18.976;2023-04-25T00:17:47;1.80;;;1.40;;
65665;SDS011;52365;47.464;18.976;2023-04-25T00:18:08;1.90;;;1.50;;
65665;SDS011;52365;47.464;18.976;2023-04-25T00:18:29;2.00;;;1.60;;
65665;SDS011;52365;47.464;18.976;2023-04-25T00:18:50;2.00;;;1.52;;
65665;SDS011;52365;47.464;18.976;2023-04-25T00:19:14;2.33;;;1.45;;
65665;SDS011;52365;47.464;18.976;2023-04-25T00:19:35;3.05;;;1.48;;
65665;SDS011;52365;47.464;18.976;2023-04-25T00:19:58;2.22;;;1.40;;
65665;SDS011;52365;47.464;18.976;2023-04-25T00:20:19;1.98;;;1.50;;
65665;SDS011;52365;47.464;18.976;2023-04-25T00:20:40;2.37;;;1.60;;
65665;SDS011;52365;47.464;18.976;2023-04-25T00:21:06;2.55;;;1.40;;
65665;SDS011;52365;47.464;18.976;2023-04-25T00:21:28;2.42;;;1.40;;
65665;SDS011;52365;47.464;18.976;2023-04-25T00:21:49;2.20;;;1.50;;
65665;SDS011;52365;47.464;18.976;2023-04-25T00:22:10;2.08;;;1.60;;
65665;SDS011;52365;47.464;18.976;2023-04-25T00:22:32;2.30;;;1.58;;
65665;SDS011;52365;47.464;18.976;2023-04-25T00:22:55;2.40;;;1.60;;
65665;SDS011;52365;47.464;18.976;2023-04-25T00:23:11;3.45;;;1.70;;
65665;SDS011;52365;47.464;18.976;2023-04-25T00:23:37;2.85;;;1.62;;
65665;SDS011;52365;47.464;18.976;2023-04-25T00:23:59;1.83;;;1.42;;
65665;SDS011;52365;47.464;18.976;2023-04-25T00:24:21;2.42;;;1.52;;
65665;SDS011;52365;47.464;18.976;2023-04-25T00:24:42;2.37;;;1.60;;
65665;SDS011;52365;47.464;18.976;2023-04-25T00:25:05;1.95;;;1.58;;
65665;SDS011;52365;47.464;18.976;2023-04-25T00:25:27;2.10;;;1.40;;
65665;SDS011;52365;47.464;18.976;2023-04-25T00:25:49;1.90;;;1.40;;
65665;SDS011;52365;47.464;18.976;2023-04-25T00:26:11;2.10;;;1.50;;
65665;SDS011;52365;47.464;18.976;2023-04-25T00:26:33;2.33;;;1.80;;
65665;SDS011;52365;47.464;18.976;2023-04-25T00:26:55;1.83;;;1.50;;
65665;SDS011;52365;47.464;18.976;2023-04-25T00:27:16;2.58;;;1.50;;
65665;SDS011;52365;47.464;18.976;2023-04-25T00:27:37;3.47;;;1.67;;
65665;SDS011;52365;47.464;18.976;2023-04-25T00:27:59;2.53;;;1.70;;
65665;SDS011;52365;47.464;18.976;2023-04-25T00:28:20;3.15;;;1.87;;
65665;SDS011;52365;47.464;18.976;2023-04-25T00:28:41;2.65;;;1.70;;
65665;SDS011;52365;47.464;18.976;2023-04-25T00:29:02;2.40;;;1.50;;
65665;SDS011;52365;47.464;18.976;2023-04-25T00:29:19;2.60;;;1.50;;
65665;SDS011;52365;47.464;18.976;2023-04-25T00:29:40;2.33;;;1.45;;
65665;SDS011;52365;47.464;18.976;2023-04-25T00:30:01;2.30;;;1.40;;
65665;SDS011;52365;47.464;18.976;2023-04-25T00:30:22;2.15;;;1.42;;
65665;SDS011;52365;47.464;18.976;2023-04-25T00:30:43;2.05;;;1.52;;
65665;SDS011;52365;47.464;18.976;2023-04-25T00:30:59;1.90;;;1.52;;
65665;SDS011;52365;47.464;18.976;2023-04-25T00:31:15;1.85;;;1.52;;
65665;SDS011;52365;47.464;18.976;2023-04-25T00:31:36;2.75;;;1.45;;
65665;SDS011;52365;47.464;18.976;2023-04-25T00:31:57;2.42;;;1.50;;
65665;SDS011;52365;47.464;18.976;2023-04-25T00:32:18;2.25;;;1.65;;
65665;SDS011;52365;47.464;18.976;2023-04-25T00:32:39;2.45;;;1.50;;
65665;SDS011;52365;47.464;18.976;2023-04-25T00:33:00;2.65;;;1.58;;
65665;SDS011;52365;47.464;18.976;2023-04-25T00:33:21;2.13;;;1.53;;
65665;SDS011;52365;47.464;18.976;2023-04-25T00:33:42;1.60;;;1.30;;
65665;SDS011;52365;47.464;18.976;2023-04-25T00:33:58;1.92;;;1.42;;
65665;SDS011;52365;47.464;18.976;2023-04-25T00:34:19;2.70;;;1.60;;
65665;SDS011;52365;47.464;18.976;2023-04-25T00:34:36;3.30;;;1.60;;
65665;SDS011;52365;47.464;18.976;2023-04-25T00:34:57;3.92;;;1.65;;
65665;SDS011;52365;47.464;18.976;2023-04-25T00:35:18;4.00;;;1.62;;
65665;SDS011;52365;47.464;18.976;2023-04-25T00:35:39;2.72;;;1.40;;
65665;SDS011;52365;47.464;18.976;2023-04-25T00:36:00;2.45;;;1.50;;
65665;SDS011;52365;47.464;18.976;2023-04-25T00:36:21;2.05;;;1.50;;
65665;SDS011;52365;47.464;18.976;2023-04-25T00:36:42;2.00;;;1.50;;
65665;SDS011;52365;47.464;18.976;2023-04-25T00:37:03;2.03;;;1.70;;
65665;SDS011;52365;47.464;18.976;2023-04-25T00:37:25;2.37;;;1.60;;
65665;SDS011;52365;47.464;18.976;2023-04-25T00:37:46;2.25;;;1.75;;
65665;SDS011;52365;47.464;18.976;2023-04-25T00:38:07;2.22;;;1.70;;
65665;SDS011;52365;47.464;18.976;2023-04-25T00:38:28;2.03;;;1.60;;
65665;SDS011;52365;47.464;18.976;2023-04-25T00:38:44;2.45;;;1.70;;
65665;SDS011;52365;47.464;18.976;2023-04-25T00:39:05;2.12;;;1.50;;
65665;SDS011;52365;47.464;18.976;2023-04-25T00:39:27;2.47;;;1.70;;
65665;SDS011;52365;47.464;18.976;2023-04-25T00:39:48;2.67;;;1.80;;
65665;SDS011;52365;47.464;18.976;2023-04-25T00:40:09;2.08;;;1.70;;
65665;SDS011;52365;47.464;18.976;2023-04-25T00:40:31;1.90;;;1.65;;
65665;SDS011;52365;47.464;18.976;2023-04-25T00:40:52;2.23;;;1.60;;
65665;SDS011;52365;47.464;18.976;2023-04-25T00:41:13;2.12;;;1.52;;
65665;SDS011;52365;47.464;18.976;2023-04-25T00:41:35;3.12;;;1.77;;
65665;SDS011;52365;47.464;18.976;2023-04-25T00:41:56;2.65;;;1.90;;
65665;SDS011;52365;47.464;18.976;2023-04-25T00:42:18;2.20;;;1.50;;
65665;SDS011;52365;47.464;18.976;2023-04-25T00:42:39;1.73;;;1.50;;
65665;SDS011;52365;47.464;18.976;2023-04-25T00:43:02;3.00;;;1.90;;
65665;SDS011;52365;47.464;18.976;2023-04-25T00:43:26;3.25;;;1.80;;
65665;SDS011;52365;47.464;18.976;2023-04-25T00:43:48;3.10;;;1.70;;
65665;SDS011;52365;47.464;18.976;2023-04-25T00:44:10;2.30;;;1.60;;
65665;SDS011;52365;47.464;18.976;2023-04-25T00:44:32;2.45;;;1.60;;
65665;SDS011;52365;47.464;18.976;2023-04-25T00:44:56;2.20;;;1.67;;
65665;SDS011;52365;47.464;18.976;2023-04-25T00:45:19;2.10;;;1.70;;
65665;SDS011;52365;47.464;18.976;2023-04-25T00:45:40;2.95;;;1.90;;
65665;SDS011;52365;47.464;18.976;2023-04-25T00:46:02;2.55;;;1.90;;
65665;SDS011;52365;47.464;18.976;2023-04-25T00:46:23;2.28;;;1.95;;
65665;SDS011;52365;47.464;18.976;2023-04-25T00:46:44;2.47;;;1.92;;
65665;SDS011;52365;47.464;18.976;2023-04-25T00:47:07;2.60;;;1.95;;
65665;SDS011;52365;47.464;18.976;2023-04-25T00:47:28;2.15;;;1.62;;
65665;SDS011;52365;47.464;18.976;2023-04-25T00:47:44;2.58;;;1.80;;
65665;SDS011;52365;47.464;18.976;2023-04-25T00:48:06;2.80;;;1.87;;
65665;SDS011;52365;47.464;18.976;2023-04-25T00:48:27;2.92;;;1.87;;
65665;SDS011;52365;47.464;18.976;2023-04-25T00:48:48;3.37;;;1.87;;
65665;SDS011;52365;47.464;18.976;2023-04-25T00:49:09;3.83;;;1.80;;
65665;SDS011;52365;47.464;18.976;2023-04-25T00:49:35;3.20;;;1.87;;
65665;SDS011;52365;47.464;18.976;2023-04-25T00:49:56;2.50;;;1.80;;
65665;SDS011;52365;47.464;18.976;2023-04-25T00:50:17;3.10;;;1.77;;
65665;SDS011;52365;47.464;18.976;2023-04-25T00:50:38;3.37;;;2.00;;
65665;SDS011;52365;47.464;18.976;2023-04-25T00:51:00;2.53;;;1.90;;
65665;SDS011;52365;47.464;18.976;2023-04-25T00:51:21;2.95;;;1.90;;
65665;SDS011;52365;47.464;18.976;2023-04-25T00:51:43;2.58;;;1.73;;
65665;SDS011;52365;47.464;18.976;2023-04-25T00:52:05;3.08;;;2.00;;
65665;SDS011;52365;47.464;18.976;2023-04-25T00:52:26;3.30;;;2.20;;
65665;SDS011;52365;47.464;18.976;2023-04-25T00:52:47;3.08;;;2.20;;
65665;SDS011;52365;47.464;18.976;2023-04-25T00:53:08;3.70;;;2.10;;
65665;SDS011;52365;47.464;18.976;2023-04-25T00:53:30;3.22;;;2.03;;
65665;SDS011;52365;47.464;18.976;2023-04-25T00:53:52;2.53;;;2.00;;
65665;SDS011;52365;47.464;18.976;2023-04-25T00:54:14;2.50;;;1.92;;
65665;SDS011;52365;47.464;18.976;2023-04-25T00:54:36;3.08;;;2.10;;
65665;SDS011;52365;47.464;18.976;2023-04-25T00:54:57;3.50;;;2.10;;
65665;SDS011;52365;47.464;18.976;2023-04-25T00:55:13;3.50;;;2.20;;
65665;SDS011;52365;47.464;18.976;2023-04-25T00:55:30;3.65;;;2.15;;
65665;SDS011;52365;47.464;18.976;2023-04-25T00:55:52;2.35;;;2.10;;
65665;SDS011;52365;47.464;18.976;2023-04-25T00:56:14;3.03;;;2.10;;
65665;SDS011;52365;47.464;18.976;2023-04-25T00:56:35;3.37;;;2.15;;
65665;SDS011;52365;47.464;18.976;2023-04-25T00:56:52;3.10;;;2.15;;
65665;SDS011;52365;47.464;18.976;2023-04-25T00:57:13;2.80;;;2.10;;
65665;SDS011;52365;47.464;18.976;2023-04-25T00:57:34;2.85;;;1.98;;
65665;SDS011;52365;47.464;18.976;2023-04-25T00:57:55;2.87;;;2.00;;
65665;SDS011;52365;47.464;18.976;2023-04-25T00:58:17;3.55;;;2.10;;
65665;SDS011;52365;47.464;18.976;2023-04-25T00:58:38;3.90;;;2.15;;
65665;SDS011;52365;47.464;18.976;2023-04-25T00:59:01;2.70;;;2.30;;
65665;SDS011;52365;47.464;18.976;2023-04-25T00:59:22;2.85;;;2.30;;
65665;SDS011;52365;47.464;18.976;2023-04-25T00:59:45;2.97;;;2.10;;
65665;SDS011;52365;47.464;18.976;2023-04-25T01:00:07;3.00;;;2.17;;
65665;SDS011;52365;47.464;18.976;2023-04-25T01:00:30;3.25;;;2.20;;
65665;SDS011;52365;47.464;18.976;2023-04-25T01:00:51;3.53;;;2.15;;
65665;SDS011;52365;47.464;18.976;2023-04-25T01:01:12;3.55;;;2.20;;
65665;SDS011;52365;47.464;18.976;2023-04-25T01:01:34;3.50;;;2.28;;
65665;SDS011;52365;47.464;18.976;2023-04-25T01:01:50;4.45;;;2.37;;
65665;SDS011;52365;47.464;18.976;2023-04-25T01:02:12;3.85;;;2.15;;
65665;SDS011;52365;47.464;18.976;2023-04-25T01:02:33;3.10;;;2.20;;
65665;SDS011;52365;47.464;18.976;2023-04-25T01:02:56;3.28;;;2.15;;
65665;SDS011;52365;47.464;18.976;2023-04-25T01:03:17;3.22;;;2.12;;
65665;SDS011;52365;47.464;18.976;2023-04-25T01:03:40;2.97;;;2.30;;
65665;SDS011;52365;47.464;18.976;2023-04-25T01:04:01;3.35;;;2.20;;
65665;SDS011;52365;47.464;18.976;2023-04-25T01:04:22;2.80;;;2.12;;
65665;SDS011;52365;47.464;18.976;2023-04-25T01:04:44;3.50;;;2.40;;
65665;SDS011;52365;47.464;18.976;2023-04-25T01:05:00;2.83;;;2.30;;
65665;SDS011;52365;47.464;18.976;2023-04-25T01:05:21;3.37;;;2.28;;
65665;SDS011;52365;47.464;18.976;2023-04-25T01:05:43;3.75;;;2.60;;
65665;SDS011;52365;47.464;18.976;2023-04-25T01:06:04;3.03;;;2.47;;
65665;SDS011;52365;47.464;18.976;2023-04-25T01:06:20;2.75;;;2.30;;
65665;SDS011;52365;47.464;18.976;2023-04-25T01:06:42;3.37;;;2.50;;
65665;SDS011;52365;47.464;18.976;2023-04-25T01:07:03;2.70;;;2.30;;
65665;SDS011;52365;47.464;18.976;2023-04-25T01:07:25;2.80;;;2.37;;
65665;SDS011;52365;47.464;18.976;2023-04-25T01:07:46;2.65;;;2.30;;
65665;SDS011;52365;47.464;18.976;2023-04-25T01:08:08;3.55;;;2.55;;
65665;SDS011;52365;47.464;18.976;2023-04-25T01:08:24;3.75;;;2.62;;
65665;SDS011;52365;47.464;18.976;2023-04-25T01:08:46;3.87;;;2.65;;
65665;SDS011;52365;47.464;18.976;2023-04-25T01:09:02;3.97;;;2.60;;
65665;SDS011;52365;47.464;18.976;2023-04-25T01:09:25;2.95;;;2.40;;
65665;SDS011;52365;47.464;18.976;2023-04-25T01:09:46;3.40;;;2.65;;
65665;SDS011;52365;47.464;18.976;2023-04-25T01:10:02;3.30;;;2.60;;
65665;SDS011;52365;47.464;18.976;2023-04-25T01:10:24;3.70;;;2.60;;
65665;SDS011;52365;47.464;18.976;2023-04-25T01:10:45;3.63;;;2.43;;
65665;SDS011;52365;47.464;18.976;2023-04-25T01:11:06;3.22;;;2.42;;
65665;SDS011;52365;47.464;18.976;2023-04-25T01:11:22;3.83;;;2.62;;
65665;SDS011;52365;47.464;18.976;2023-04-25T01:11:43;3.80;;;2.60;;
65665;SDS011;52365;47.464;18.976;2023-04-25T01:12:04;4.05;;;2.50;;
65665;SDS011;52365;47.464;18.976;2023-04-25T01:12:26;3.95;;;2.65;;
65665;SDS011;52365;47.464;18.976;2023-04-25T01:12:47;4.10;;;2.65;;
65665;SDS011;52365;47.464;18.976;2023-04-25T01:13:08;4.47;;;2.50;;
65665;SDS011;52365;47.464;18.976;2023-04-25T01:13:29;3.85;;;2.47;;
65665;SDS011;52365;47.464;18.976;2023-04-25T01:13:52;3.55;;;2.62;;
65665;SDS011;52365;47.464;18.976;2023-04-25T01:14:13;3.12;;;2.45;;
65665;SDS011;52365;47.464;18.976;2023-04-25T01:14:34;3.62;;;2.33;;
65665;SDS011;52365;47.464;18.976;2023-04-25T01:14:55;3.40;;;2.20;;
65665;SDS011;52365;47.464;18.976;2023-04-25T01:15:16;3.25;;;2.08;;
65665;SDS011;52365;47.464;18.976;2023-04-25T01:15:37;4.93;;;2.33;;
65665;SDS011;52365;47.464;18.976;2023-04-25T01:15:59;4.65;;;2.55;;
65665;SDS011;52365;47.464;18.976;2023-04-25T01:16:20;3.72;;;2.55;;
65665;SDS011;52365;47.464;18.976;2023-04-25T01:16:44;3.53;;;2.40;;
65665;SDS011;52365;47.464;18.976;2023-04-25T01:17:05;2.95;;;2.40;;
65665;SDS011;52365;47.464;18.976;2023-04-25T01:17:28;3.55;;;2.60;;
65665;SDS011;52365;47.464;18.976;2023-04-25T01:17:49;4.10;;;2.72;;
65665;SDS011;52365;47.464;18.976;2023-04-25T01:18:10;3.00;;;2.35;;
65665;SDS011;52365;47.464;18.976;2023-04-25T01:18:32;3.92;;;2.65;;
65665;SDS011;52365;47.464;18.976;2023-04-25T01:18:53;3.22;;;2.50;;
65665;SDS011;52365;47.464;18.976;2023-04-25T01:19:16;4.28;;;2.70;;
65665;SDS011;52365;47.464;18.976;2023-04-25T01:19:38;4.55;;;2.50;;
65665;SDS011;52365;47.464;18.976;2023-04-25T01:20:01;3.80;;;2.50;;
65665;SDS011;52365;47.464;18.976;2023-04-25T01:20:24;4.07;;;2.45;;
65665;SDS011;52365;47.464;18.976;2023-04-25T01:20:47;4.32;;;2.42;;
65665;SDS011;52365;47.464;18.976;2023-04-25T01:21:11;3.35;;;2.40;;
65665;SDS011;52365;47.464;18.976;2023-04-25T01:21:36;3.65;;;2.50;;
65665;SDS011;52365;47.464;18.976;2023-04-25T01:21:57;3.08;;;2.50;;
65665;SDS011;52365;47.464;18.976;2023-04-25T01:22:18;2.95;;;2.45;;
65665;SDS011;52365;47.464;18.976;2023-04-25T01:22:39;3.60;;;2.50;;
65665;SDS011;52365;47.464;18.976;2023-04-25T01:23:01;4.03;;;2.60;;
65665;SDS011;52365;47.464;18.976;2023-04-25T01:23:19;3.00;;;2.58;;
65665;SDS011;52365;47.464;18.976;2023-04-25T01:23:41;3.20;;;2.30;;
65665;SDS011;52365;47.464;18.976;2023-04-25T01:24:03;2.47;;;2.28;;
65665;SDS011;52365;47.464;18.976;2023-04-25T01:24:24;2.95;;;2.40;;
65665;SDS011;52365;47.464;18.976;2023-04-25T01:24:41;2.97;;;2.37;;
65665;SDS011;52365;47.464;18.976;2023-04-25T01:25:02;3.12;;;2.30;;
65665;SDS011;52365;47.464;18.976;2023-04-25T01:25:23;4.07;;;2.62;;
65665;SDS011;52365;47.464;18.976;2023-04-25T01:25:45;3.62;;;2.28;;
65665;SDS011;52365;47.464;18.976;2023-04-25T01:26:08;3.60;;;2.53;;
65665;SDS011;52365;47.464;18.976;2023-04-25T01:26:26;3.75;;;2.40;;
65665;SDS011;52365;47.464;18.976;2023-04-25T01:26:47;3.62;;;2.25;;
65665;SDS011;52365;47.464;18.976;2023-04-25T01:27:12;3.53;;;2.28;;
65665;SDS011;52365;47.464;18.976;2023-04-25T01:27:33;4.15;;;2.37;;
65665;SDS011;52365;47.464;18.976;2023-04-25T01:27:56;3.03;;;2.28;;
65665;SDS011;52365;47.464;18.976;2023-04-25T01:28:18;3.20;;;2.47;;
65665;SDS011;52365;47.464;18.976;2023-04-25T01:28:40;3.78;;;2.22;;
65665;SDS011;52365;47.464;18.976;2023-04-25T01:29:03;4.30;;;2.40;;
65665;SDS011;52365;47.464;18.976;2023-04-25T01:29:25;3.30;;;2.40;;
65665;SDS011;52365;47.464;18.976;2023-04-25T01:29:48;3.15;;;2.40;;
65665;SDS011;52365;47.464;18.976;2023-04-25T01:30:05;3.78;;;2.50;;
65665;SDS011;52365;47.464;18.976;2023-04-25T01:30:27;3.55;;;2.40;;
65665;SDS011;52365;47.464;18.976;2023-04-25T01:30:48;3.60;;;2.40;;
65665;SDS011;52365;47.464;18.976;2023-04-25T01:31:06;3.87;;;2.42;;
65665;SDS011;52365;47.464;18.976;2023-04-25T01:31:27;3.87;;;2.33;;
65665;SDS011;52365;47.464;18.976;2023-04-25T01:31:49;4.12;;;2.33;;
65665;SDS011;52365;47.464;18.976;2023-04-25T01:32:13;3.65;;;2.40;;
65665;SDS011;52365;47.464;18.976;2023-04-25T01:32:34;3.83;;;2.35;;
65665;SDS011;52365;47.464;18.976;2023-04-25T01:32:58;3.00;;;2.25;;
65665;SDS011;52365;47.464;18.976;2023-04-25T01:33:21;3.95;;;2.30;;
65665;SDS011;52365;47.464;18.976;2023-04-25T01:33:42;5.20;;;2.30;;
65665;SDS011;52365;47.464;18.976;2023-04-25T01:34:04;4.85;;;2.58;;
65665;SDS011;52365;47.464;18.976;2023-04-25T01:34:25;3.87;;;2.50;;
65665;SDS011;52365;47.464;18.976;2023-04-25T01:34:46;3.37;;;2.40;;
65665;SDS011;52365;47.464;18.976;2023-04-25T01:35:10;3.22;;;2.25;;
65665;SDS011;52365;47.464;18.976;2023-04-25T01:35:32;2.67;;;2.30;;
65665;SDS011;52365;47.464;18.976;2023-04-25T01:35:48;3.08;;;2.50;;
65665;SDS011;52365;47.464;18.976;2023-04-25T01:36:09;3.33;;;2.42;;
65665;SDS011;52365;47.464;18.976;2023-04-25T01:36:30;3.58;;;2.60;;
65665;SDS011;52365;47.464;18.976;2023-04-25T01:36:51;3.42;;;2.55;;
65665;SDS011;52365;47.464;18.976;2023-04-25T01:37:14;3.60;;;2.30;;
65665;SDS011;52365;47.464;18.976;2023-04-25T01:37:36;5.15;;;2.47;;
65665;SDS011;52365;47.464;18.976;2023-04-25T01:37:58;3.28;;;2.33;;
65665;SDS011;52365;47.464;18.976;2023-04-25T01:38:19;2.92;;;2.10;;
65665;SDS011;52365;47.464;18.976;2023-04-25T01:38:40;2.97;;;2.37;;
65665;SDS011;52365;47.464;18.976;2023-04-25T01:39:02;3.42;;;2.30;;
65665;SDS011;52365;47.464;18.976;2023-04-25T01:39:23;3.17;;;2.47;;
65665;SDS011;52365;47.464;18.976;2023-04-25T01:39:45;3.17;;;2.40;;
65665;SDS011;52365;47.464;18.976;2023-04-25T01:40:07;4.20;;;2.60;;
65665;SDS011;52365;47.464;18.976;2023-04-25T01:40:29;3.47;;;2.17;;
65665;SDS011;52365;47.464;18.976;2023-04-25T01:40:52;3.62;;;2.42;;
65665;SDS011;52365;47.464;18.976;2023-04-25T01:41:15;3.55;;;2.35;;
65665;SDS011;52365;47.464;18.976;2023-04-25T01:41:38;3.42;;;2.17;;
65665;SDS011;52365;47.464;18.976;2023-04-25T01:41:59;3.85;;;2.42;;
65665;SDS011;52365;47.464;18.976;2023-04-25T01:42:20;4.07;;;2.55;;
65665;SDS011;52365;47.464;18.976;2023-04-25T01:42:42;3.28;;;2.40;;
65665;SDS011;52365;47.464;18.976;2023-04-25T01:43:04;3.22;;;2.40;;
65665;SDS011;52365;47.464;18.976;2023-04-25T01:43:25;3.78;;;2.33;;
65665;SDS011;52365;47.464;18.976;2023-04-25T01:43:47;5.03;;;2.40;;
65665;SDS011;52365;47.464;18.976;2023-04-25T01:44:08;4.37;;;2.60;;
65665;SDS011;52365;47.464;18.976;2023-04-25T01:44:29;3.10;;;2.53;;
65665;SDS011;52365;47.464;18.976;2023-04-25T01:44:50;3.83;;;2.60;;
65665;SDS011;52365;47.464;18.976;2023-04-25T01:45:06;3.78;;;2.50;;
65665;SDS011;52365;47.464;18.976;2023-04-25T01:45:28;3.42;;;2.40;;
65665;SDS011;52365;47.464;18.976;2023-04-25T01:45:49;4.07;;;2.30;;
65665;SDS011;52365;47.464;18.976;2023-04-25T01:46:11;3.00;;;2.10;;
65665;SDS011;52365;47.464;18.976;2023-04-25T01:46:33;2.97;;;2.28;;
65665;SDS011;52365;47.464;18.976;2023-04-25T01:46:54;3.67;;;2.37;;
65665;SDS011;52365;47.464;18.976;2023-04-25T01:47:16;3.15;;;2.30;;
65665;SDS011;52365;47.464;18.976;2023-04-25T01:47:37;3.70;;;2.60;;
65665;SDS011;52365;47.464;18.976;2023-04-25T01:47:55;2.83;;;2.33;;
65665;SDS011;52365;47.464;18.976;2023-04-25T01:48:19;3.92;;;2.35;;
65665;SDS011;52365;47.464;18.976;2023-04-25T01:48:40;3.42;;;2.45;;
65665;SDS011;52365;47.464;18.976;2023-04-25T01:49:01;3.87;;;2.53;;
65665;SDS011;52365;47.464;18.976;2023-04-25T01:49:23;3.70;;;2.60;;
65665;SDS011;52365;47.464;18.976;2023-04-25T01:49:44;2.95;;;2.37;;
65665;SDS011;52365;47.464;18.976;2023-04-25T01:50:06;3.30;;;2.50;;
65665;SDS011;52365;47.464;18.976;2023-04-25T01:50:28;3.17;;;2.50;;
65665;SDS011;52365;47.464;18.976;2023-04-25T01:50:49;3.47;;;2.60;;
65665;SDS011;52365;47.464;18.976;2023-04-25T01:51:11;2.92;;;2.35;;
65665;SDS011;52365;47.464;18.976;2023-04-25T01:51:32;3.12;;;2.30;;
65665;SDS011;52365;47.464;18.976;2023-04-25T01:51:53;3.33;;;2.37;;
65665;SDS011;52365;47.464;18.976;2023-04-25T01:52:09;3.72;;;2.40;;
65665;SDS011;52365;47.464;18.976;2023-04-25T01:52:30;3.80;;;2.35;;
65665;SDS011;52365;47.464;18.976;2023-04-25T01:52:51;3.25;;;2.42;;
65665;SDS011;52365;47.464;18.976;2023-04-25T01:53:12;3.70;;;2.62;;
65665;SDS011;52365;47.464;18.976;2023-04-25T01:53:34;4.20;;;2.62;;
65665;SDS011;52365;47.464;18.976;2023-04-25T01:53:50;3.22;;;2.40;;
65665;SDS011;52365;47.464;18.976;2023-04-25T01:54:07;3.55;;;2.30;;
65665;SDS011;52365;47.464;18.976;2023-04-25T01:54:30;3.20;;;2.47;;
65665;SDS011;52365;47.464;18.976;2023-04-25T01:54:46;3.53;;;2.50;;
65665;SDS011;52365;47.464;18.976;2023-04-25T01:55:08;3.50;;;2.40;;
65665;SDS011;52365;47.464;18.976;2023-04-25T01:55:29;3.45;;;2.40;;
65665;SDS011;52365;47.464;18.976;2023-04-25T01:55:50;3.30;;;2.45;;
65665;SDS011;52365;47.464;18.976;2023-04-25T01:56:11;3.45;;;2.50;;
65665;SDS011;52365;47.464;18.976;2023-04-25T01:56:32;4.10;;;2.50;;
65665;SDS011;52365;47.464;18.976;2023-04-25T01:56:51;3.75;;;2.30;;
65665;SDS011;52365;47.464;18.976;2023-04-25T01:57:07;3.33;;;2.40;;
65665;SDS011;52365;47.464;18.976;2023-04-25T01:57:28;2.92;;;2.40;;
65665;SDS011;52365;47.464;18.976;2023-04-25T01:57:45;3.72;;;2.53;;
65665;SDS011;52365;47.464;18.976;2023-04-25T01:58:06;4.05;;;2.60;;
65665;SDS011;52365;47.464;18.976;2023-04-25T01:58:30;3.37;;;2.40;;
65665;SDS011;52365;47.464;18.976;2023-04-25T01:58:51;4.62;;;2.62;;
65665;SDS011;52365;47.464;18.976;2023-04-25T01:59:12;4.43;;;2.55;;
65665;SDS011;52365;47.464;18.976;2023-04-25T01:59:28;3.67;;;2.33;;
65665;SDS011;52365;47.464;18.976;2023-04-25T01:59:49;3.70;;;2.40;;
65665;SDS011;52365;47.464;18.976;2023-04-25T02:00:11;4.20;;;2.60;;
65665;SDS011;52365;47.464;18.976;2023-04-25T02:00:33;4.00;;;2.60;;
65665;SDS011;52365;47.464;18.976;2023-04-25T02:00:54;3.92;;;2.60;;
65665;SDS011;52365;47.464;18.976;2023-04-25T02:01:15;5.10;;;2.78;;
65665;SDS011;52365;47.464;18.976;2023-04-25T02:01:36;4.10;;;2.42;;
65665;SDS011;52365;47.464;18.976;2023-04-25T02:01:52;3.20;;;2.40;;
65665;SDS011;52365;47.464;18.976;2023-04-25T02:02:13;2.92;;;2.30;;
65665;SDS011;52365;47.464;18.976;2023-04-25T02:02:34;2.85;;;2.25;;
65665;SDS011;52365;47.464;18.976;2023-04-25T02:02:51;3.22;;;2.30;;
65665;SDS011;52365;47.464;18.976;2023-04-25T02:03:13;3.80;;;2.35;;
65665;SDS011;52365;47.464;18.976;2023-04-25T02:03:34;3.28;;;2.40;;
65665;SDS011;52365;47.464;18.976;2023-04-25T02:03:56;3.22;;;2.50;;
65665;SDS011;52365;47.464;18.976;2023-04-25T02:04:12;3.08;;;2.50;;
65665;SDS011;52365;47.464;18.976;2023-04-25T02:04:33;3.78;;;2.53;;
65665;SDS011;52365;47.464;18.976;2023-04-25T02:04:54;5.05;;;2.60;;